Time;durP1;ratioP1;P1;durP2;ratioP2;P2;SDS_P1;SDS_P2;PMS_P1;PMS_P2;Temp;Humidity;BMP_temperature;BMP_pressure;BME280_temperature;BME280_humidity;BME280_pressure;Samples;Min_cycle;Max_cycle;Signal;HPM_P1;HPM_P2
2021/11/06 00:35:57;;;;;;;;;322.43;319.29;;;;;;;;4994333;28;8806;-84
2021/11/06 00:39:05;;;;;;;;;;;;;;;;;;;;;
2021/11/06 00:47:56;;;;;;;;;256.60;253.60;;;;;;;;4920549;28;8800;-84
2021/11/06 00:50:44;;;;;;;;;205.00;203.67;;;;;;;;4953974;28;8911;-84
2021/11/06 01:53:32;;;;;;;;;245.33;245.00;;;;;;;;4776194;29;10384;-85
2021/11/06 02:05:45;;;;;;;;;182.83;179.00;;;;;;;;4877780;29;8804;-84
2021/11/06 02:11:26;;;;;;;;;;;;;;;;;;;;;
2021/11/06 03:22:00;;;;;;;;;240.00;239.00;;;;;;;;4612116;31;8849;-84
2021/11/06 03:41:04;;;;;;;;;236.40;233.40;;;;;;;;4716641;30;8881;-84
2021/11/06 03:52:57;;;;;;;;;216.40;213.60;;;;;;;;4762833;30;8804;-84
2021/11/06 03:55:34;;;;;;;;;238.33;236.83;;;;;;;;4781938;29;8806;-84
2021/11/06 03:58:18;;;;;;;;;218.60;217.80;;;;;;;;4832065;29;8940;-83
2021/11/06 04:00:51;;;;;;;;;249.80;248.40;;;;;;;;4877964;29;9194;-84
2021/11/06 04:03:39;;;;;;;;;226.00;222.80;;;;;;;;4900330;29;8796;-83
2021/11/06 04:07:17;;;;;;;;;263.17;263.17;;;;;;;;4916176;29;8868;-83
2021/11/06 04:09:16;;;;;;;;;228.00;225.00;;;;;;;;4949646;28;9779;-83
2021/11/06 04:11:41;;;;;;;;;260.83;258.83;;;;;;;;4973227;28;8826;-84
2021/11/06 04:14:06;;;;;;;;;249.60;247.60;;;;;;;;4957879;28;8802;-83
2021/11/06 04:16:32;;;;;;;;;214.75;210.00;;;;;;;;4974275;28;8833;-83
2021/11/06 04:18:58;;;;;;;;;257.33;256.50;;;;;;;;4966063;28;8813;-83
2021/11/06 04:21:24;;;;;;;;;224.60;219.80;;;;;;;;4976258;28;8838;-83
2021/11/06 04:23:49;;;;;;;;;183.67;181.50;;;;;;;;4986406;28;8802;-83
2021/11/06 04:26:15;;;;;;;;;201.75;191.75;;;;;;;;4974081;28;8857;-83
2021/11/06 04:28:40;;;;;;;;;224.50;219.75;;;;;;;;4978241;28;8904;-83
2021/11/06 04:31:06;;;;;;;;;231.25;226.00;;;;;;;;4995594;28;11577;-83
2021/11/06 04:33:33;;;;;;;;;242.00;240.80;;;;;;;;4995557;28;8840;-84
2021/11/06 04:35:59;;;;;;;;;187.00;184.20;;;;;;;;4977566;28;11538;-84
2021/11/06 04:38:24;;;;;;;;;179.25;178.25;;;;;;;;4977511;28;8837;-85
2021/11/06 04:40:52;;;;;;;;;224.25;221.25;;;;;;;;4995304;28;8814;-84
2021/11/06 04:43:17;;;;;;;;;195.20;191.20;;;;;;;;4974762;28;8903;-83
2021/11/06 04:45:43;;;;;;;;;185.00;181.75;;;;;;;;4992284;28;8900;-84
2021/11/06 04:48:08;;;;;;;;;240.40;230.00;;;;;;;;4977582;28;8948;-83
2021/11/06 04:50:33;;;;;;;;;202.40;199.60;;;;;;;;4994748;28;8802;-83
2021/11/06 04:52:59;;;;;;;;;243.80;243.20;;;;;;;;4995469;28;8825;-83
2021/11/06 04:55:25;;;;;;;;;187.40;181.20;;;;;;;;4994962;28;8813;-83
2021/11/06 04:57:50;;;;;;;;;185.75;180.75;;;;;;;;4998358;28;8834;-82
2021/11/06 05:00:16;;;;;;;;;209.00;201.33;;;;;;;;4995037;28;9664;-83
2021/11/06 05:02:41;;;;;;;;;204.67;200.67;;;;;;;;4995490;28;8810;-83
2021/11/06 05:05:07;;;;;;;;;234.40;232.20;;;;;;;;4994696;28;8814;-83
2021/11/06 05:07:33;;;;;;;;;244.83;242.33;;;;;;;;4994799;28;8805;-83
2021/11/06 05:09:58;;;;;;;;;264.60;256.80;;;;;;;;4977259;28;8920;-83
2021/11/06 05:12:24;;;;;;;;;280.40;279.00;;;;;;;;4986485;28;8804;-82
2021/11/06 05:14:50;;;;;;;;;192.80;188.80;;;;;;;;4994044;28;8794;-83
2021/11/06 05:17:16;;;;;;;;;235.20;231.80;;;;;;;;4986954;28;8813;-83
2021/11/06 05:19:42;;;;;;;;;234.67;233.33;;;;;;;;4990120;28;8759;-83
2021/11/06 05:22:08;;;;;;;;;185.50;181.00;;;;;;;;4994336;28;8782;-83
2021/11/06 05:24:34;;;;;;;;;255.60;253.20;;;;;;;;4993518;28;8822;-83
2021/11/06 05:26:59;;;;;;;;;273.40;272.20;;;;;;;;4994676;28;8900;-83
2021/11/06 05:29:25;;;;;;;;;193.60;193.20;;;;;;;;4976753;28;9039;-83
2021/11/06 05:31:50;;;;;;;;;208.25;206.00;;;;;;;;4994852;28;8842;-82
2021/11/06 05:34:16;;;;;;;;;198.20;195.80;;;;;;;;4994135;28;9629;-82
2021/11/06 05:36:41;;;;;;;;;195.00;192.40;;;;;;;;4994574;28;8845;-83
2021/11/06 05:39:06;;;;;;;;;198.50;197.00;;;;;;;;4994681;28;8814;-83
2021/11/06 05:41:32;;;;;;;;;213.50;210.75;;;;;;;;4994102;28;11567;-83
2021/11/06 05:43:57;;;;;;;;;190.20;188.00;;;;;;;;4988202;28;11676;-83
2021/11/06 05:46:23;;;;;;;;;272.20;270.00;;;;;;;;4993927;28;8850;-83
2021/11/06 05:48:48;;;;;;;;;269.00;265.20;;;;;;;;4994228;28;8802;-83
2021/11/06 05:51:14;;;;;;;;;251.00;246.40;;;;;;;;4994009;28;8798;-83
2021/11/06 05:53:39;;;;;;;;;186.25;184.00;;;;;;;;4994265;28;8884;-83
2021/11/06 05:56:04;;;;;;;;;187.25;187.00;;;;;;;;4994237;28;8805;-83
2021/11/06 05:58:30;;;;;;;;;250.33;247.67;;;;;;;;4993658;28;9666;-83
2021/11/06 06:00:55;;;;;;;;;247.40;243.60;;;;;;;;4994560;28;8865;-83
2021/11/06 06:03:20;;;;;;;;;277.80;275.80;;;;;;;;4993913;28;8842;-82
2021/11/06 06:05:46;;;;;;;;;177.40;173.60;;;;;;;;4976866;28;8964;-82
2021/11/06 06:08:11;;;;;;;;;274.00;272.20;;;;;;;;4993410;28;8845;-83
2021/11/06 06:10:36;;;;;;;;;174.20;170.60;;;;;;;;4994429;28;8844;-83
2021/11/06 06:13:02;;;;;;;;;186.00;179.60;;;;;;;;4973407;28;8824;-83
2021/11/06 06:15:27;;;;;;;;;224.80;221.80;;;;;;;;4993893;28;8817;-83
2021/11/06 06:17:53;;;;;;;;;252.50;248.00;;;;;;;;4981771;28;8869;-83
2021/11/06 06:20:19;;;;;;;;;173.00;170.67;;;;;;;;4976070;28;11616;-83
2021/11/06 06:22:45;;;;;;;;;256.20;253.60;;;;;;;;4993697;28;8935;-83
2021/11/06 06:25:11;;;;;;;;;279.00;276.67;;;;;;;;4993038;28;9839;-83
2021/11/06 06:27:37;;;;;;;;;247.83;246.83;;;;;;;;4975349;28;9118;-83
2021/11/06 06:30:07;;;;;;;;;240.00;238.00;;;;;;;;4976262;28;8802;-83
2021/11/06 06:32:32;;;;;;;;;173.00;169.60;;;;;;;;4993220;28;8844;-83
2021/11/06 06:34:57;;;;;;;;;180.00;176.00;;;;;;;;4976088;28;8794;-83
2021/11/06 06:37:24;;;;;;;;;263.00;262.50;;;;;;;;4992860;28;8955;-83
2021/11/06 06:39:49;;;;;;;;;271.67;267.83;;;;;;;;4993777;28;8972;-83
2021/11/06 06:42:15;;;;;;;;;215.33;214.33;;;;;;;;4975469;28;8833;-83
2021/11/06 06:44:40;;;;;;;;;145.75;142.25;;;;;;;;4993306;28;8840;-83
2021/11/06 06:47:05;;;;;;;;;148.20;143.80;;;;;;;;4975663;28;8861;-83
2021/11/06 06:49:31;;;;;;;;;207.20;201.20;;;;;;;;4993359;28;8817;-83
2021/11/06 06:51:56;;;;;;;;;182.00;179.00;;;;;;;;4993106;28;8862;-83
2021/11/06 06:54:23;;;;;;;;;143.80;140.80;;;;;;;;4987303;28;8893;-82
2021/11/06 06:56:49;;;;;;;;;172.80;165.40;;;;;;;;4992543;28;8806;-82
2021/11/06 06:59:14;;;;;;;;;190.00;185.00;;;;;;;;4993415;28;8834;-83
2021/11/06 07:01:40;;;;;;;;;168.40;166.40;;;;;;;;4992799;28;8810;-83
2021/11/06 07:04:05;;;;;;;;;239.75;239.00;;;;;;;;4974728;28;9566;-83
2021/11/06 07:06:31;;;;;;;;;157.40;153.60;;;;;;;;4992845;28;8814;-83
2021/11/06 07:08:59;;;;;;;;;156.00;153.33;;;;;;;;4993504;28;8866;-82
2021/11/06 07:11:24;;;;;;;;;198.33;195.50;;;;;;;;4992673;28;8794;-83
2021/11/06 07:13:51;;;;;;;;;184.25;180.50;;;;;;;;4979784;28;8912;-83
2021/11/06 07:16:16;;;;;;;;;225.67;220.83;;;;;;;;4992307;28;8821;-83
2021/11/06 07:18:42;;;;;;;;;145.40;140.80;;;;;;;;4968619;28;8862;-83
2021/11/06 07:21:07;;;;;;;;;146.20;142.60;;;;;;;;4992591;28;8856;-82
2021/11/06 07:23:32;;;;;;;;;137.20;137.00;;;;;;;;4993108;28;8837;-83
2021/11/06 07:26:01;;;;;;;;;147.00;141.50;;;;;;;;4976091;28;8848;-84
2021/11/06 07:28:27;;;;;;;;;160.83;159.17;;;;;;;;4992386;28;8932;-82
2021/11/06 07:30:55;;;;;;;;;154.33;149.67;;;;;;;;4992106;28;8778;-84
2021/11/06 07:33:20;;;;;;;;;184.00;183.00;;;;;;;;4992941;28;8769;-84
2021/11/06 07:35:46;;;;;;;;;142.00;140.00;;;;;;;;4992920;28;8806;-84
2021/11/06 07:38:13;;;;;;;;;140.20;138.60;;;;;;;;4992987;28;8826;-84
2021/11/06 07:40:38;;;;;;;;;223.00;218.17;;;;;;;;4992657;28;8794;-84
2021/11/06 07:43:04;;;;;;;;;233.17;226.50;;;;;;;;4991863;28;8880;-84
2021/11/06 07:45:29;;;;;;;;;207.40;204.80;;;;;;;;4992883;28;8949;-84
2021/11/06 07:47:54;;;;;;;;;235.40;234.20;;;;;;;;4996183;28;8863;-85
2021/11/06 07:50:20;;;;;;;;;225.25;221.50;;;;;;;;4996025;28;8915;-84
2021/11/06 07:52:45;;;;;;;;;180.60;180.20;;;;;;;;4995962;28;11726;-84
2021/11/06 07:55:11;;;;;;;;;240.80;233.20;;;;;;;;4983012;28;8798;-84
2021/11/06 07:57:37;;;;;;;;;216.00;214.80;;;;;;;;4996473;28;8838;-84
2021/11/06 08:00:10;;;;;;;;;232.00;231.00;;;;;;;;4995950;28;8841;-84
2021/11/06 08:02:58;;;;;;;;;236.83;235.67;;;;;;;;4978169;28;8960;-85
2021/11/06 08:05:45;;;;;;;;;;;;;;;;;;;;;
2021/11/06 08:08:40;;;;;;;;;243.20;237.80;;;;;;;;4992505;28;35726;-84
2021/11/06 08:11:31;;;;;;;;;235.00;233.20;;;;;;;;4966181;28;8829;-85
2021/11/06 08:17:34;;;;;;;;;224.17;220.33;;;;;;;;4957480;28;8834;-84
2021/11/06 08:23:12;;;;;;;;;209.60;206.00;;;;;;;;4931810;28;11511;-84
2021/11/06 08:28:46;;;;;;;;;236.40;234.20;;;;;;;;4937815;28;9849;-85
2021/11/06 08:31:11;;;;;;;;;206.60;202.60;;;;;;;;4973587;28;9644;-86
2021/11/06 08:33:37;;;;;;;;;266.25;259.25;;;;;;;;4984251;28;8791;-84
2021/11/06 08:36:23;;;;;;;;;229.00;226.80;;;;;;;;4982763;28;8842;-87
2021/11/06 08:41:39;;;;;;;;;224.83;223.00;;;;;;;;4984565;28;8760;-87
2021/11/06 08:47:47;;;;;;;;;;;;;;;;;;;;;
2021/11/06 09:00:04;;;;;;;;;;;;;;;;;;;;;
2021/11/06 09:02:32;;;;;;;;;207.80;206.00;;;;;;;;4980827;28;37589;-86
2021/11/06 09:05:11;;;;;;;;;212.00;208.60;;;;;;;;4971020;28;9689;-86
2021/11/06 09:07:37;;;;;;;;;259.00;258.17;;;;;;;;4993020;28;8831;-85
2021/11/06 09:10:06;;;;;;;;;215.80;213.60;;;;;;;;4994548;28;8800;-86
2021/11/06 09:12:32;;;;;;;;;250.17;245.33;;;;;;;;4976446;28;8811;-84
2021/11/06 09:15:00;;;;;;;;;249.83;248.00;;;;;;;;4994867;28;8913;-85
2021/11/06 09:17:25;;;;;;;;;217.60;217.00;;;;;;;;4976593;28;8902;-86
2021/11/06 09:19:51;;;;;;;;;217.40;214.80;;;;;;;;4994708;28;11553;-85
2021/11/06 09:22:17;;;;;;;;;221.40;220.20;;;;;;;;4993718;28;9586;-86
2021/11/06 09:24:42;;;;;;;;;218.20;215.20;;;;;;;;4995491;28;8802;-85
2021/11/06 09:27:08;;;;;;;;;211.80;208.60;;;;;;;;4994088;28;8818;-86
2021/11/06 09:29:33;;;;;;;;;246.60;245.60;;;;;;;;4994429;28;8833;-86
2021/11/06 09:31:58;;;;;;;;;234.60;232.20;;;;;;;;4994722;28;8844;-83
2021/11/06 09:34:26;;;;;;;;;226.75;220.75;;;;;;;;4994414;28;8833;-88
2021/11/06 09:36:57;;;;;;;;;223.83;222.17;;;;;;;;4993629;28;10268;-85
2021/11/06 09:39:25;;;;;;;;;210.00;207.33;;;;;;;;4976238;28;9002;-87
2021/11/06 09:41:51;;;;;;;;;277.40;275.80;;;;;;;;4976426;28;8798;-86
2021/11/06 09:44:16;;;;;;;;;260.20;258.20;;;;;;;;4992525;28;8886;-86
2021/11/06 09:46:42;;;;;;;;;298.50;296.33;;;;;;;;4994547;28;9017;-87
2021/11/06 09:49:07;;;;;;;;;302.17;301.50;;;;;;;;4994757;28;8822;-87
2021/11/06 09:51:33;;;;;;;;;225.60;224.60;;;;;;;;4994218;28;8810;-87
2021/11/06 09:53:59;;;;;;;;;309.00;305.33;;;;;;;;4977073;28;8814;-87
2021/11/06 09:56:25;;;;;;;;;222.00;220.00;;;;;;;;4995167;28;8806;-87
2021/11/06 09:59:00;;;;;;;;;280.80;276.40;;;;;;;;5004665;28;12506;-87
2021/11/06 10:01:31;;;;;;;;;312.00;310.00;;;;;;;;4994113;28;8886;-88
2021/11/06 10:04:00;;;;;;;;;86.80;80.20;;;;;;;;4995101;28;11723;-87
2021/11/06 10:06:26;;;;;;;;;68.00;62.00;;;;;;;;4976955;28;8983;-86
2021/11/06 10:09:00;;;;;;;;;53.40;47.00;;;;;;;;4994731;28;8834;-88
2021/11/06 10:27:29;;;;;;;;;;;;;;;;;;;;;
2021/11/06 10:58:52;;;;;;;;;0.00;0.00;;;;;;;;4783611;29;8823;-88
2021/11/06 11:01:22;;;;;;;;;0.00;0.00;;;;;;;;4778782;29;8813;-90
2021/11/06 11:03:49;;;;;;;;;0.00;0.00;;;;;;;;4807406;29;8811;-89
2021/11/06 11:06:16;;;;;;;;;0.00;0.00;;;;;;;;4987053;28;8802;-88
2021/11/06 11:08:42;;;;;;;;;0.00;0.00;;;;;;;;4994303;28;8817;-89
2021/11/06 11:11:08;;;;;;;;;0.00;0.00;;;;;;;;4994258;28;8814;-88
2021/11/06 11:13:34;;;;;;;;;0.00;0.00;;;;;;;;4994002;28;8951;-88
2021/11/06 11:16:15;;;;;;;;;0.00;0.00;;;;;;;;4994100;28;9577;-88
2021/11/06 11:18:40;;;;;;;;;0.00;0.00;;;;;;;;4993173;28;8832;-89
2021/11/06 11:21:26;;;;;;;;;0.00;0.00;;;;;;;;4995067;28;8826;-89
2021/11/06 11:23:52;;;;;;;;;0.00;0.00;;;;;;;;4979546;28;8798;-89
2021/11/06 11:26:44;;;;;;;;;0.00;0.00;;;;;;;;4994244;28;8821;-88
2021/11/06 11:29:08;;;;;;;;;0.00;0.00;;;;;;;;4995881;28;8796;-88
2021/11/06 11:31:45;;;;;;;;;0.00;0.00;;;;;;;;4997184;28;8834;-88
2021/11/06 11:36:59;;;;;;;;;0.00;0.00;;;;;;;;4986421;28;9015;-88
2021/11/06 11:39:29;;;;;;;;;0.00;0.00;;;;;;;;4997016;28;8917;-88
2021/11/06 11:42:15;;;;;;;;;0.00;0.00;;;;;;;;4997287;28;8794;-88
2021/11/06 11:48:20;;;;;;;;;;;;;;;;;;;;;
2021/11/06 11:50:47;;;;;;;;;0.00;0.00;;;;;;;;4995918;28;35927;-88
2021/11/06 11:53:33;;;;;;;;;0.00;0.00;;;;;;;;4996839;28;8794;-88
2021/11/06 11:56:05;;;;;;;;;0.00;0.00;;;;;;;;4963589;28;8810;-88
2021/11/06 11:58:38;;;;;;;;;0.00;0.00;;;;;;;;4999610;28;8817;-89
2021/11/06 12:01:04;;;;;;;;;0.00;0.00;;;;;;;;4998186;28;8785;-89
2021/11/06 12:03:39;;;;;;;;;0.00;0.00;;;;;;;;5007835;28;9115;-89
2021/11/06 12:06:25;;;;;;;;;0.00;0.00;;;;;;;;5008687;28;8814;-90
2021/11/06 12:08:53;;;;;;;;;0.00;0.00;;;;;;;;4985353;28;9654;-89
2021/11/06 12:11:38;;;;;;;;;;;;;;;;;;;;;
2021/11/06 12:14:45;;;;;;;;;0.00;0.00;;;;;;;;4987543;28;36066;-90
2021/11/06 12:17:42;;;;;;;;;0.00;0.00;;;;;;;;4943006;28;8833;-89
2021/11/06 12:24:34;;;;;;;;;0.00;0.00;;;;;;;;4897638;29;8800;-87
2021/11/06 12:27:15;;;;;;;;;;;;;;;;;;;;;
2021/11/06 12:39:03;;;;;;;;;0.00;0.00;;;;;;;;4734258;30;9694;-87
2021/11/06 12:42:07;;;;;;;;;;;;;;;;;;;;;
2021/11/06 12:54:08;;;;;;;;;0.00;0.00;;;;;;;;4787656;29;8835;-89
2021/11/06 12:56:37;;;;;;;;;0.00;0.00;;;;;;;;4844924;28;8806;-88
2021/11/06 12:59:08;;;;;;;;;0.00;0.00;;;;;;;;4995915;28;10078;-88
2021/11/06 13:01:34;;;;;;;;;0.00;0.00;;;;;;;;4978006;28;8823;-86
2021/11/06 13:04:01;;;;;;;;;0.00;0.00;;;;;;;;4978627;28;8823;-86
2021/11/06 13:06:28;;;;;;;;;0.00;0.00;;;;;;;;4995435;28;9783;-87
2021/11/06 13:09:14;;;;;;;;;0.00;0.00;;;;;;;;4996180;28;8814;-87
2021/11/06 13:11:57;;;;;;;;;0.00;0.00;;;;;;;;4977915;28;8834;-87
2021/11/06 13:14:29;;;;;;;;;0.00;0.00;;;;;;;;4977720;28;8839;-87
2021/11/06 13:17:01;;;;;;;;;0.00;0.00;;;;;;;;4994721;28;8824;-87
2021/11/06 13:19:47;;;;;;;;;;;;;;;;;;;;;
2021/11/06 13:22:22;;;;;;;;;0.00;0.00;;;;;;;;4994783;28;35992;-86
2021/11/06 13:25:02;;;;;;;;;0.00;0.00;;;;;;;;4977252;28;8838;-87
2021/11/06 13:27:47;;;;;;;;;;;;;;;;;;;;;
2021/11/06 13:30:24;;;;;;;;;0.00;0.00;;;;;;;;4994682;28;34985;-87
2021/11/06 13:33:11;;;;;;;;;0.00;0.00;;;;;;;;4977678;28;9757;-87
2021/11/06 13:35:42;;;;;;;;;0.00;0.00;;;;;;;;4988044;28;8971;-87
2021/11/06 13:38:24;;;;;;;;;0.00;0.00;;;;;;;;4977800;28;8793;-87
2021/11/06 13:41:08;;;;;;;;;0.00;0.00;;;;;;;;4977571;28;8789;-87
2021/11/06 13:43:36;;;;;;;;;0.00;0.00;;;;;;;;4971521;28;8825;-87
2021/11/06 13:46:07;;;;;;;;;0.00;0.00;;;;;;;;4977132;28;8833;-87
2021/11/06 13:48:38;;;;;;;;;0.00;0.00;;;;;;;;4993566;28;8805;-86
2021/11/06 13:51:25;;;;;;;;;0.00;0.00;;;;;;;;4993665;28;8844;-87
2021/11/06 13:54:31;;;;;;;;;0.00;0.00;;;;;;;;4997267;28;8829;-88
2021/11/06 13:57:09;;;;;;;;;0.00;0.00;;;;;;;;4977639;28;8856;-87
2021/11/06 13:59:50;;;;;;;;;0.00;0.00;;;;;;;;4977731;28;8904;-87
2021/11/06 14:02:38;;;;;;;;;0.00;0.00;;;;;;;;4995295;28;8802;-88
2021/11/06 14:05:03;;;;;;;;;0.00;0.00;;;;;;;;4995223;28;8790;-87
2021/11/06 14:07:38;;;;;;;;;0.00;0.00;;;;;;;;4994821;28;8900;-87
2021/11/06 14:10:05;;;;;;;;;0.00;0.00;;;;;;;;4995115;28;8801;-86
2021/11/06 14:12:45;;;;;;;;;0.00;0.00;;;;;;;;4977033;28;10188;-89
2021/11/06 14:15:13;;;;;;;;;0.00;0.00;;;;;;;;4977486;28;8852;-85
2021/11/06 14:17:52;;;;;;;;;0.00;0.00;;;;;;;;4994084;28;8770;-85
2021/11/06 14:20:28;;;;;;;;;0.00;0.00;;;;;;;;4981482;28;8966;-86
2021/11/06 14:22:53;;;;;;;;;0.00;0.00;;;;;;;;4993035;28;8813;-86
2021/11/06 14:25:37;;;;;;;;;0.00;0.00;;;;;;;;4975435;28;8821;-86
2021/11/06 14:28:28;;;;;;;;;0.00;0.00;;;;;;;;4991665;28;8991;-85
2021/11/06 14:30:58;;;;;;;;;0.00;0.00;;;;;;;;4989781;28;8828;-86
2021/11/06 14:33:25;;;;;;;;;0.00;0.00;;;;;;;;4994070;28;8786;-86
2021/11/06 14:35:50;;;;;;;;;0.00;0.00;;;;;;;;4994264;28;8790;-86
2021/11/06 14:38:16;;;;;;;;;0.00;0.00;;;;;;;;4976016;28;8877;-86
2021/11/06 14:41:01;;;;;;;;;0.00;0.00;;;;;;;;4976678;28;8865;-85
2021/11/06 14:43:27;;;;;;;;;0.00;0.00;;;;;;;;4968500;28;8968;-86
2021/11/06 14:45:59;;;;;;;;;0.00;0.00;;;;;;;;4994137;28;8912;-86
2021/11/06 14:48:24;;;;;;;;;0.00;0.00;;;;;;;;4976443;28;8806;-86
2021/11/06 14:51:00;;;;;;;;;0.00;0.00;;;;;;;;4976282;28;8978;-86
2021/11/06 14:53:25;;;;;;;;;0.00;0.00;;;;;;;;4993252;28;8786;-85
2021/11/06 14:55:52;;;;;;;;;0.00;0.00;;;;;;;;4994486;28;8896;-86
2021/11/06 14:58:18;;;;;;;;;0.00;0.00;;;;;;;;4979484;28;8814;-86
2021/11/06 15:00:49;;;;;;;;;0.00;0.00;;;;;;;;4997577;28;8966;-84
2021/11/06 15:03:23;;;;;;;;;0.00;0.00;;;;;;;;4996528;28;8806;-84
2021/11/06 15:05:52;;;;;;;;;0.00;0.00;;;;;;;;4971773;28;9755;-84
2021/11/06 15:08:22;;;;;;;;;0.00;0.00;;;;;;;;4979585;28;8814;-83
2021/11/06 15:10:49;;;;;;;;;0.00;0.00;;;;;;;;4989588;28;8786;-83
2021/11/06 15:13:16;;;;;;;;;0.00;0.00;;;;;;;;4979284;28;8817;-84
2021/11/06 15:15:42;;;;;;;;;0.00;0.00;;;;;;;;4979990;28;8936;-84
2021/11/06 15:18:19;;;;;;;;;0.00;0.00;;;;;;;;4993703;28;8925;-85
2021/11/06 15:21:00;;;;;;;;;0.00;0.00;;;;;;;;4996809;28;8816;-84
2021/11/06 15:23:51;;;;;;;;;0.00;0.00;;;;;;;;4979336;28;8871;-85
2021/11/06 15:26:16;;;;;;;;;0.00;0.00;;;;;;;;4975044;28;8830;-85
2021/11/06 15:28:43;;;;;;;;;0.00;0.00;;;;;;;;4996911;28;8951;-85
2021/11/06 15:31:11;;;;;;;;;0.00;0.00;;;;;;;;4979164;28;8806;-85
2021/11/06 15:33:39;;;;;;;;;0.00;0.00;;;;;;;;4986542;28;8790;-83
2021/11/06 15:36:06;;;;;;;;;0.00;0.00;;;;;;;;4981616;28;9743;-84
2021/11/06 15:38:32;;;;;;;;;0.00;0.00;;;;;;;;4996981;28;8822;-83
2021/11/06 15:40:57;;;;;;;;;0.00;0.00;;;;;;;;4996314;28;8834;-83
2021/11/06 15:43:23;;;;;;;;;0.00;0.00;;;;;;;;4993060;28;8800;-83
2021/11/06 15:45:49;;;;;;;;;0.00;0.00;;;;;;;;4992435;28;8790;-83
2021/11/06 15:48:16;;;;;;;;;0.00;0.00;;;;;;;;4979640;28;8892;-83
2021/11/06 15:50:41;;;;;;;;;0.00;0.00;;;;;;;;4996075;28;8824;-83
2021/11/06 15:53:09;;;;;;;;;0.00;0.00;;;;;;;;4978615;28;8822;-82
2021/11/06 15:55:34;;;;;;;;;0.00;0.00;;;;;;;;4996804;28;8821;-82
2021/11/06 16:05:17;;;;;;;;;0.00;0.00;;;;;;;;4893780;29;8910;-84
2021/11/06 16:07:48;;;;;;;;;0.00;0.00;;;;;;;;4903823;28;8867;-85
2021/11/06 16:10:14;;;;;;;;;0.00;0.00;;;;;;;;4977960;28;8935;-84
2021/11/06 16:13:13;;;;;;;;;0.00;0.00;;;;;;;;4995401;28;8822;-85
2021/11/06 16:15:41;;;;;;;;;0.00;0.00;;;;;;;;4995578;28;8952;-84
2021/11/06 16:18:27;;;;;;;;;0.00;0.00;;;;;;;;4993161;28;8992;-85
2021/11/06 16:20:55;;;;;;;;;0.00;0.00;;;;;;;;4995887;28;8794;-83
2021/11/06 16:23:52;;;;;;;;;0.00;0.00;;;;;;;;4977453;28;8798;-85
2021/11/06 16:26:21;;;;;;;;;0.00;0.00;;;;;;;;4972373;28;8841;-85
2021/11/06 16:28:49;;;;;;;;;0.00;0.00;;;;;;;;4995644;28;8857;-85
2021/11/06 16:31:14;;;;;;;;;0.00;0.00;;;;;;;;4995304;28;8816;-84
2021/11/06 16:34:12;;;;;;;;;0.00;0.00;;;;;;;;4995917;28;9614;-85
2021/11/06 16:37:05;;;;;;;;;0.00;0.00;;;;;;;;4949535;28;8833;-83
2021/11/06 16:39:33;;;;;;;;;0.00;0.00;;;;;;;;4995689;28;8864;-84
2021/11/06 16:45:04;;;;;;;;;0.00;0.00;;;;;;;;4980662;28;8852;-84
2021/11/06 16:48:04;;;;;;;;;0.00;0.00;;;;;;;;4973781;28;8846;-83
2021/11/06 16:50:36;;;;;;;;;0.00;0.00;;;;;;;;4995590;28;8774;-84
2021/11/06 16:53:02;;;;;;;;;0.00;0.00;;;;;;;;4994857;28;8839;-82
2021/11/06 16:55:27;;;;;;;;;0.00;0.00;;;;;;;;4994933;28;8810;-83
2021/11/06 16:57:53;;;;;;;;;0.00;0.00;;;;;;;;5002212;28;8882;-83
2021/11/06 17:00:18;;;;;;;;;0.00;0.00;;;;;;;;4995748;28;8806;-83
2021/11/06 17:02:47;;;;;;;;;0.00;0.00;;;;;;;;4996261;28;8810;-83
2021/11/06 17:05:15;;;;;;;;;0.00;0.00;;;;;;;;4977924;28;8813;-83
2021/11/06 17:07:43;;;;;;;;;0.00;0.00;;;;;;;;4996137;28;9720;-83
2021/11/06 17:10:55;;;;;;;;;0.00;0.00;;;;;;;;4995795;28;9767;-83
2021/11/06 17:19:27;;;;;;;;;0.00;0.00;;;;;;;;4931992;29;8852;-88
2021/11/06 17:28:37;;;;;;;;;0.00;0.00;;;;;;;;4802599;29;8815;-85
2021/11/06 17:44:13;;;;;;;;;;;;;;;;;;;;;
2021/11/06 17:50:45;;;;;;;;;0.00;0.00;;;;;;;;4763363;29;8858;-85
2021/11/06 17:53:15;;;;;;;;;0.00;0.00;;;;;;;;4802365;29;9873;-84
2021/11/06 17:55:41;;;;;;;;;0.00;0.00;;;;;;;;4786469;29;9800;-82
2021/11/06 18:01:23;;;;;;;;;0.00;0.00;;;;;;;;4794755;29;8786;-84
2021/11/06 18:03:49;;;;;;;;;0.00;0.00;;;;;;;;4885725;28;8925;-82
2021/11/06 18:06:15;;;;;;;;;0.00;0.00;;;;;;;;4994693;28;8884;-83
2021/11/06 18:08:40;;;;;;;;;0.00;0.00;;;;;;;;4995037;28;8806;-83
2021/11/06 18:11:06;;;;;;;;;0.00;0.00;;;;;;;;4977093;28;8837;-83
2021/11/06 18:13:32;;;;;;;;;0.00;0.00;;;;;;;;4993655;28;8809;-83
2021/11/06 18:16:01;;;;;;;;;0.00;0.00;;;;;;;;4994172;28;8913;-84
2021/11/06 18:34:57;;;;;;;;;;;;;;;;;;;;;
2021/11/06 18:47:24;;;;;;;;;252.00;252.00;;;;;;;;4898155;28;8926;-86
2021/11/06 18:50:28;;;;;;;;;305.00;305.00;;;;;;;;4986110;28;8818;-85
2021/11/06 18:53:33;;;;;;;;;;;;;;;;;;;;;
2021/11/06 18:55:58;;;;;;;;;372.17;372.17;;;;;;;;4932025;28;36653;-83
2021/11/06 18:58:31;;;;;;;;;189.40;187.60;;;;;;;;4992692;28;11639;-84
2021/11/06 19:04:51;;;;;;;;;277.67;277.67;;;;;;;;4984769;28;8821;-85
2021/11/06 19:07:51;;;;;;;;;;;;;;;;;;;;;
2021/11/06 19:10:44;;;;;;;;;221.67;219.67;;;;;;;;4985174;28;35390;-84
2021/11/06 19:29:20;;;;;;;;;156.50;154.17;;;;;;;;4832674;29;8807;-85
2021/11/06 19:32:04;;;;;;;;;178.60;176.00;;;;;;;;4825468;29;8775;-83
2021/11/06 19:34:35;;;;;;;;;190.40;187.60;;;;;;;;4937107;28;11500;-84
2021/11/06 19:37:16;;;;;;;;;;;;;;;;;;;;;
2021/11/06 19:39:54;;;;;;;;;;;;;;;;;;;;;
2021/11/06 19:45:19;;;;;;;;;171.60;165.80;;;;;;;;4946481;28;9792;-81
2021/11/06 19:47:45;;;;;;;;;164.60;163.60;;;;;;;;4995923;28;8818;-83
2021/11/06 20:41:26;;;;;;;;;215.67;214.33;;;;;;;;4783919;29;8939;-84
2021/11/06 20:43:53;;;;;;;;;216.20;211.80;;;;;;;;4786854;29;8831;-82
2021/11/06 20:46:18;;;;;;;;;234.33;229.00;;;;;;;;4844159;29;9766;-83
2021/11/06 20:48:44;;;;;;;;;225.60;222.20;;;;;;;;4909754;28;8795;-83
2021/11/06 20:51:11;;;;;;;;;219.40;215.80;;;;;;;;4956120;28;8848;-83
2021/11/06 20:53:37;;;;;;;;;219.20;217.00;;;;;;;;4938678;28;9928;-83
2021/11/06 20:56:05;;;;;;;;;211.40;209.80;;;;;;;;4956188;28;8812;-83
2021/11/06 20:58:50;;;;;;;;;219.33;214.33;;;;;;;;4938720;28;8839;-84
2021/11/06 21:01:16;;;;;;;;;230.00;228.67;;;;;;;;4944866;28;8973;-83
2021/11/06 21:03:41;;;;;;;;;234.83;232.33;;;;;;;;4955912;28;11753;-82
2021/11/06 21:06:09;;;;;;;;;268.80;266.40;;;;;;;;4952238;28;9504;-83
2021/11/06 21:08:38;;;;;;;;;227.00;221.67;;;;;;;;4945759;28;11222;-83
2021/11/06 21:13:38;;;;;;;;;248.17;246.50;;;;;;;;4950746;28;8791;-82
2021/11/06 21:18:49;;;;;;;;;237.80;236.80;;;;;;;;4951895;28;8819;-82
2021/11/06 21:21:15;;;;;;;;;240.00;239.80;;;;;;;;4954734;28;8788;-82
2021/11/06 21:23:44;;;;;;;;;280.20;278.20;;;;;;;;4937954;28;8833;-82
2021/11/06 21:26:15;;;;;;;;;280.00;279.17;;;;;;;;4957974;28;8954;-81
2021/11/06 21:28:42;;;;;;;;;262.33;261.17;;;;;;;;4968413;28;8847;-81
2021/11/06 21:31:08;;;;;;;;;275.67;271.83;;;;;;;;4970576;28;9729;-81
2021/11/06 21:33:40;;;;;;;;;234.80;232.40;;;;;;;;4974978;28;8804;-81
2021/11/06 21:38:45;;;;;;;;;266.00;263.80;;;;;;;;4974731;28;8820;-81
2021/11/06 21:41:15;;;;;;;;;264.67;262.50;;;;;;;;4956702;28;9248;-81
2021/11/06 21:43:44;;;;;;;;;222.20;221.20;;;;;;;;4951132;28;8835;-81
2021/11/06 21:46:12;;;;;;;;;250.50;250.33;;;;;;;;4969118;28;8761;-81
2021/11/06 21:48:39;;;;;;;;;273.00;269.67;;;;;;;;4957065;28;8839;-81
2021/11/06 21:51:05;;;;;;;;;286.17;285.50;;;;;;;;4969422;28;8824;-81
2021/11/06 21:53:30;;;;;;;;;225.83;223.50;;;;;;;;4974169;28;8907;-81
2021/11/06 21:55:59;;;;;;;;;215.83;212.83;;;;;;;;4957127;28;9083;-81
2021/11/06 21:58:25;;;;;;;;;226.50;224.50;;;;;;;;4955989;28;9445;-81
2021/11/06 22:00:51;;;;;;;;;259.00;257.00;;;;;;;;4973414;28;8804;-81
2021/11/06 22:03:24;;;;;;;;;234.33;233.33;;;;;;;;4983839;28;8745;-81
2021/11/06 22:05:53;;;;;;;;;236.00;232.50;;;;;;;;4973393;28;8780;-81
2021/11/06 22:08:22;;;;;;;;;266.20;263.40;;;;;;;;4973044;28;8905;-81
2021/11/06 22:10:51;;;;;;;;;268.17;264.50;;;;;;;;4974121;28;8796;-81
2021/11/06 22:13:16;;;;;;;;;274.33;272.67;;;;;;;;4973546;28;8803;-81
2021/11/06 22:15:43;;;;;;;;;289.00;288.67;;;;;;;;4973906;28;10036;-81
2021/11/06 22:18:09;;;;;;;;;295.67;290.00;;;;;;;;4951160;28;8812;-81
2021/11/06 22:20:40;;;;;;;;;278.20;272.60;;;;;;;;4967052;28;8897;-81
2021/11/06 22:23:10;;;;;;;;;294.00;289.67;;;;;;;;4973157;28;8824;-81
2021/11/06 22:25:40;;;;;;;;;288.17;287.33;;;;;;;;4952042;28;11610;-81
2021/11/06 22:28:08;;;;;;;;;293.86;293.86;;;;;;;;4954863;28;8799;-81
2021/11/06 22:30:36;;;;;;;;;296.00;292.00;;;;;;;;4937172;28;8772;-81
2021/11/06 22:33:04;;;;;;;;;297.50;295.17;;;;;;;;4929254;29;9811;-80
2021/11/06 22:35:30;;;;;;;;;266.33;264.33;;;;;;;;4934692;28;8823;-80
2021/11/06 22:37:55;;;;;;;;;241.33;238.00;;;;;;;;4941269;28;8842;-80
2021/11/06 22:40:21;;;;;;;;;240.20;237.80;;;;;;;;4953499;28;8921;-80
2021/11/06 22:42:47;;;;;;;;;277.33;275.83;;;;;;;;4954567;28;8816;-81